Terminal Aerodrome Forecast
Issued by NWS Austin/San Antonio, TX

Home | Current Version | Previous Version | Text Only | Print | Product List | Glossary On
Versions: 1 2 3 4 5 6 7 8 9 10 11 12 13 14 15 16 17 18
000
FTUS44 KEWX 250719 AAB
TAFDRT
TAF AMD
KDRT 250719Z 2507/2606 31003KT 5SM -RA BR SCT025 BKN110
     FM251000 11005KT P6SM VCSH BKN020 OVC100
     FM251600 13010KT P6SM -SHRA BKN040 PROB30 2516/2522 4SM TSRA
      BKN035CB=

USA.gov is the U.S. government's official web portal to all federal, state and local government web resources and services.